Flight Track Log - Related Links

Times and Time Zones

All times are in EST time to prevent confusion due to time zone crossing. See the N589H flight status page for this flight to view local times or setup timezone preferences in your user account.

Time Position Orientation Groundspeed Altitude Reporting Facility
EST Latitude Longitude Course Direction KTS MPH feet Rate Location/Type
Sun 06:13:49 AM 27.9333 -82.7500 360° North 194 223 1,800  Level Tampa TRACON
Sun 06:13:55 AM 27.9333 -82.7500 169° South 197 227 1,800 1,644 Level Tampa TRACON
Sun 06:16:04 AM 27.8386 -82.7289 169° South 194 223 5,500 1,778 Climbing Miami Center
Sun 06:17:04 AM 27.8033 -82.6708 124° Southeast 196 226 7,400 1,750 Climbing Miami Center
Sun 06:18:04 AM 27.7661 -82.6125 126° Southeast 213 245 9,000 1,500 Climbing Miami Center
Sun 06:19:04 AM 27.7228 -82.5447 126° Southeast 244 281 10,400 1,400 Climbing Miami Center
Sun 06:20:04 AM 27.6797 -82.4747 125° Southeast 261 300 11,800 1,450 Climbing Miami Center
Sun 06:21:04 AM 27.6364 -82.4044 125° Southeast 272 313 13,300 1,450 Climbing Miami Center
Sun 06:22:04 AM 27.5892 -82.3319 126° Southeast 277 319 14,700 1,450 Climbing Miami Center
Sun 06:23:04 AM 27.5397 -82.2594 128° Southeast 283 326 16,200 1,450 Climbing Miami Center
Sun 06:24:04 AM 27.4967 -82.1872 124° Southeast 283 326 17,600 1,450 Climbing Miami Center
Sun 06:25:04 AM 27.4453 -82.1031 125° Southeast 283 326 19,100 1,450 Climbing Miami Center
Sun 06:26:04 AM 27.3958 -82.0283 127° Southeast 295 339 20,500 1,400 Climbing Miami Center
Sun 06:27:04 AM 27.3544 -81.9633 126° Southeast 295 339 21,900 1,300 Climbing Miami Center
Sun 06:28:04 AM 27.3050 -81.8864 126° Southeast 295 339 23,100 1,200 Climbing Miami Center
Sun 06:29:04 AM 27.2494 -81.8022 127° Southeast 300 345 24,300 1,050 Climbing Miami Center
Sun 06:30:04 AM 27.1958 -81.7158 125° Southeast 315 362 25,200 900 Climbing Miami Center
Sun 06:31:04 AM 27.1442 -81.6389 127° Southeast 331 381 26,100 900 Climbing Miami Center
Sun 06:32:04 AM 27.0889 -81.5481 124° Southeast 345 397 27,000 1,000 Climbing Miami Center
Sun 06:33:04 AM 27.0269 -81.4547 127° Southeast 351 404 28,100 1,000 Climbing Miami Center
Sun 06:34:04 AM 26.9714 -81.3664 125° Southeast 351 404 29,000 900 Climbing Miami Center
Sun 06:35:04 AM 26.9136 -81.2781 126° Southeast 351 404 29,900 900 Climbing Miami Center
Sun 06:36:04 AM 26.8636 -81.1992 125° Southeast 351 404 30,800 550 Climbing Miami Center
Sun 06:37:04 AM 26.8078 -81.1133 126° Southeast 351 404 31,000 100 Climbing Miami Center
Sun 06:38:04 AM 26.7397 -81.0086 126° Southeast 356 410 31,000  Level Miami Center
Sun 06:39:04 AM 26.6758 -80.9133 127° Southeast 374 430 31,000  Level Miami Center
Sun 06:40:04 AM 26.6197 -80.8256 126° Southeast 379 436 31,000  Level Miami Center
Sun 06:41:04 AM 26.5475 -80.7164 126° Southeast 389 448 31,000  Level Miami Center
Sun 06:42:04 AM 26.4831 -80.6189 126° Southeast 395 455 31,000  Level Miami Center
Sun 06:43:04 AM 26.4189 -80.5219 126° Southeast 395 455 31,000  Level Miami Center
Sun 06:44:04 AM 26.3583 -80.4319 127° Southeast 390 449 31,000  Level Miami Center
Sun 06:45:04 AM 26.2878 -80.3233 126° Southeast 390 449 31,000  Level Miami Center
Sun 06:46:04 AM 26.2314 -80.2336 125° Southeast 390 449 31,000  Level Miami Center
Sun 06:47:04 AM 26.1647 -80.1344 127° Southeast 395 455 31,000  Level Miami Center
Sun 06:48:04 AM 26.0942 -80.0283 127° Southeast 395 455 31,000  Level Miami Center
Sun 06:49:04 AM 26.0292 -79.9297 126° Southeast 395 455 31,000  Level Miami Center
Sun 06:50:04 AM 25.9625 -79.8286 126° Southeast 395 455 31,000  Level Miami Center
Sun 06:51:04 AM 25.9058 -79.7278 122° Southeast 390 449 31,000  Level Miami Center
Sun 06:52:04 AM 25.8431 -79.6247 124° Southeast 395 455 31,000  Level Miami Center
Sun 06:53:04 AM 25.7864 -79.5358 125° Southeast 395 455 31,000  Level Miami Center
Sun 06:54:04 AM 25.7172 -79.4236 124° Southeast 395 455 31,000  Level Miami Center
Sun 06:55:04 AM 25.6564 -79.3208 123° Southeast 395 455 31,000  Level Miami Center
Sun 06:56:04 AM 25.5933 -79.2183 124° Southeast 401 461 31,000  Level Miami Center
Sun 06:57:04 AM 25.5322 -79.1181 124° Southeast 401 461 31,000  Level Miami Center
Sun 06:58:04 AM 25.4689 -79.0156 124° Southeast 401 461 31,000  Level Miami Center
Sun 06:59:04 AM 25.4056 -78.9156 125° Southeast 401 461 31,000  Level Miami Center
Sun 07:00:04 AM 25.3442 -78.8133 124° Southeast 401 461 31,000  Level Miami Center
Sun 07:01:04 AM 25.2828 -78.7136 124° Southeast 401 461 31,000  Level Miami Center
Sun 07:02:04 AM 25.2172 -78.6114 125° Southeast 401 461 31,000  Level Miami Center
Sun 07:03:04 AM 25.1558 -78.5097 124° Southeast 401 461 31,000  Level Miami Center
Sun 07:04:04 AM 25.0919 -78.4078 125° Southeast 401 461 31,000  Level Miami Center
Sun 07:05:04 AM 25.0283 -78.3061 125° Southeast 401 461 31,000  Level Miami Center
Sun 07:06:04 AM 24.9667 -78.2022 123° Southeast 406 467 31,000  Level Miami Center
Sun 07:07:04 AM 24.9028 -78.1031 125° Southeast 406 467 31,000  Level Miami Center
Sun 07:08:04 AM 24.8408 -78.0039 125° Southeast 406 467 31,000  Level Miami Center
Sun 07:09:04 AM 24.7767 -77.9003 124° Southeast 406 467 31,000  Level Miami Center
Sun 07:10:04 AM 24.7125 -77.7992 125° Southeast 406 467 31,000  Level Miami Center
Sun 07:11:04 AM 24.6483 -77.6981 125° Southeast 406 467 31,000  Level Miami Center
Sun 07:12:04 AM 24.5842 -77.5969 125° Southeast 406 467 31,000  Level Miami Center
Sun 07:13:04 AM 24.5197 -77.4961 125° Southeast 406 467 31,000  Level Miami Center
Sun 07:14:04 AM 24.4556 -77.3953 125° Southeast 406 467 31,000  Level Miami Center
Sun 07:15:04 AM 24.3931 -77.2947 124° Southeast 406 467 31,000  Level Miami Center
Sun 07:16:04 AM 24.3286 -77.1942 125° Southeast 406 467 31,000  Level Miami Center
Sun 07:17:04 AM 24.2639 -77.0914 125° Southeast 406 467 31,000  Level Miami Center
Sun 07:18:04 AM 24.1992 -76.9933 126° Southeast 401 461 31,000  Level Miami Center
Sun 07:19:04 AM 24.1367 -76.8931 124° Southeast 401 461 31,000  Level Miami Center
Sun 07:20:04 AM 24.0803 -76.8042 125° Southeast 406 467 31,000  Level Miami Center
Sun 07:21:04 AM 24.0153 -76.7042 125° Southeast 406 467 31,000  Level Miami Center
Sun 07:22:04 AM 23.9503 -76.6042 125° Southeast 406 467 31,000  Level Miami Center
Sun 07:23:04 AM 23.8875 -76.5067 125° Southeast 406 467 31,000  Level Miami Center
Sun 07:24:04 AM 23.8244 -76.4092 125° Southeast 406 467 31,000  Level Miami Center
Sun 07:25:04 AM 23.7594 -76.3094 125° Southeast 406 467 31,000  Level Miami Center
Sun 07:26:04 AM 23.6942 -76.2078 125° Southeast 406 467 31,000  Level Miami Center
Sun 07:27:04 AM 23.6311 -76.1106 125° Southeast 406 467 31,000  Level Miami Center
Sun 07:28:04 AM 23.5658 -76.0133 126° Southeast 406 467 31,000  Level Miami Center
Sun 07:29:04 AM 23.5025 -75.9164 125° Southeast 406 467 31,000  Level Miami Center
Sun 07:30:04 AM 23.4328 -75.8014 123° Southeast 406 467 31,000  Level Miami Center
Sun 07:31:04 AM 23.3608 -75.7025 128° Southeast 408 470 31,000  Level Miami Center
Sun 07:32:04 AM 23.2994 -75.6056 125° Southeast 403 464 31,000  Level Miami Center
Sun 07:33:04 AM 23.2339 -75.5069 126° Southeast 403 464 31,000  Level Miami Center
Sun 07:34:04 AM 23.1703 -75.4103 126° Southeast 403 464 31,000  Level Miami Center
Sun 07:35:04 AM 23.1067 -75.3117 125° Southeast 403 464 31,000  Level Miami Center
Sun 07:36:04 AM 23.0408 -75.2153 127° Southeast 403 464 31,000 100 Level Miami Center
Sun 07:37:04 AM 22.9750 -75.1192 127° Southeast 403 464 31,200 400 Climbing Miami Center
Sun 07:38:04 AM 22.9133 -75.0231 125° Southeast 403 464 31,800 550 Climbing Miami Center
Sun 07:39:04 AM 22.8517 -74.9317 126° Southeast 392 451 32,300 550 Climbing Miami Center
Sun 07:40:04 AM 22.7897 -74.8400 126° Southeast 381 438 32,900 350 Climbing Miami Center
Sun 07:41:04 AM 22.7300 -74.7486 125° Southeast 376 433 33,000 50 Climbing Miami Center
Sun 07:42:04 AM 22.6661 -74.6575 127° Southeast 376 433 33,000  Level Miami Center
Sun 07:43:04 AM 22.5997 -74.5597 126° Southeast 386 444 33,000  Level Miami Center
Sun 07:44:04 AM 22.5358 -74.4642 126° Southeast 391 450 33,000  Level Miami Center
Sun 07:45:04 AM 22.4714 -74.3686 126° Southeast 396 456 33,000  Level Miami Center
Sun 07:46:04 AM 22.4050 -74.2689 126° Southeast 401 461 33,000  Level Miami Center
Sun 07:47:04 AM 22.3386 -74.1736 127° Southeast 401 461 33,000  Level Miami Center
Sun 07:48:04 AM 22.2806 -74.0850 125° Southeast 401 461 33,000  Level Miami Center
Sun 07:49:04 AM 22.2164 -73.9900 126° Southeast 406 467 33,000  Level Miami Center
Sun 07:50:04 AM 22.1539 -73.8903 124° Southeast 401 461 33,000  Level Miami Center
Sun 07:51:04 AM 22.0831 -73.8003 130° Southeast 401 461 33,000  Level Miami Center
Sun 07:52:04 AM 22.0139 -73.6875 123° Southeast 401 461 33,000  Level Miami Center
Sun 07:53:04 AM 21.9472 -73.5906 127° Southeast 401 461 33,000  Level Miami Center
Sun 07:54:04 AM 21.8867 -73.4958 125° Southeast 401 461 33,000  Level Miami Center
Sun 07:55:04 AM 21.8156 -73.3994 128° Southeast 406 467 33,000  Level Miami Center
Sun 07:56:04 AM 21.7506 -73.3006 125° Southeast 406 467 33,000  Level Miami Center
Sun 07:57:04 AM 21.6794 -73.2042 128° Southeast 406 467 33,000  Level Miami Center
Sun 07:58:04 AM 21.6167 -73.1056 124° Southeast 406 467 33,000  Level Miami Center
Sun 07:59:04 AM 21.5517 -73.0092 126° Southeast 406 467 33,000  Level Miami Center
Sun 08:00:04 AM 21.4844 -72.9150 127° Southeast 406 467 33,000  Level Miami Center
Sun 08:01:04 AM 21.4172 -72.8192 127° Southeast 401 461 33,000  Level Miami Center
Sun 08:02:04 AM 21.3522 -72.7231 126° Southeast 407 468 33,000  Level Miami Center
Sun 08:03:04 AM 21.2847 -72.6272 127° Southeast 402 463 33,000  Level Miami Center
Sun 08:04:04 AM 21.2175 -72.5314 127° Southeast 402 463 33,000  Level Miami Center
Sun 08:05:04 AM 21.1481 -72.4333 127° Southeast 402 463 33,000  Level Miami Center
Sun 08:06:04 AM 21.0806 -72.3378 127° Southeast 402 463 33,000  Level Miami Center
Sun 08:07:04 AM 21.0150 -72.2422 126° Southeast 402 463 33,000  Level Miami Center
Sun 08:08:04 AM 20.9456 -72.1469 128° Southeast 402 463 33,000  Level Miami Center
Sun 08:09:04 AM 20.8778 -72.0494 127° Southeast 402 463 33,000  Level Miami Center
Sun 08:10:04 AM 20.8100 -71.9542 127° Southeast 402 463 33,000  Level Miami Center
Sun 08:11:04 AM 20.7444 -71.8589 126° Southeast 402 463 33,000  Level Miami Center
Sun 08:12:04 AM 20.6789 -71.7617 126° Southeast 402 463 33,000  Level Miami Center
Sun 08:13:04 AM 20.6108 -71.6667 127° Southeast 402 463 33,000  Level Miami Center
Sun 08:14:04 AM 20.5453 -71.5719 126° Southeast 402 463 33,000  Level Miami Center
Sun 08:15:04 AM 20.4772 -71.4772 127° Southeast 407 468 33,000  Level Miami Center
Sun 08:16:04 AM 20.4075 -71.3847 129° Southeast 402 463 33,000  Level Miami Center
Sun 08:17:04 AM 20.3194 -71.3175 144° Southeast 392 451 33,000  Level Miami Center
Sun 08:19:00 AM 20.1782 -71.1778 137° Southeast  Level FlightAware Approximate
Sun 08:26:00 AM 19.6389 -70.7070 141° Southeast  Level FlightAware Approximate
Sun 08:27:00 AM 19.5613 -70.6406 141° Southeast  Level FlightAware Approximate
Sun 08:28:00 AM 19.4840 -70.5738 141° Southeast  Level FlightAware Approximate
Sun 08:29:00 AM 19.4068 -70.5069 141° Southeast  Level FlightAware Approximate
Sun 08:30:00 AM 19.3296 -70.4400 141° Southeast  Level FlightAware Approximate
Sun 08:31:00 AM 19.2523 -70.3733 141° Southeast  Level FlightAware Approximate
Sun 08:32:00 AM 19.1748 -70.3069 141° Southeast  Level FlightAware Approximate
Sun 08:33:00 AM 19.0973 -70.2405 141° Southeast  Level FlightAware Approximate
Sun 08:34:00 AM 19.0201 -70.1738 140° Southeast  Level FlightAware Approximate
Sun 08:35:00 AM 18.9433 -70.1066 140° Southeast  Level FlightAware Approximate
Sun 08:36:00 AM 18.8671 -70.0387 140° Southeast  Level FlightAware Approximate
Sun 08:37:00 AM 18.7912 -69.9704 140° Southeast  Level FlightAware Approximate
Sun 08:38:00 AM 18.7137 -69.9043 143° Southeast  Level FlightAware Approximate
Sun 08:39:00 AM 18.6371 -69.8371 137° Southeast  Level FlightAware Approximate
Sun 08:40:00 AM 18.5584 -69.7729 145° Southeast  Level FlightAware Approximate
Sun 08:41:00 AM 18.4778 -69.7111 137° Southeast  Level FlightAware Approximate
Sun 08:42:00 AM 18.4297 -69.6689 137° Southeast  Level Estimated
Sun 08:43:00 AM 18.4297 -69.6689 137° Southeast  Level Estimated
Sun 08:44:00 AM 18.4297 -69.6689 137° Southeast  Level Estimated
Sun 08:45:00 AM 18.4297 -69.6689 137° Southeast  Level Estimated
Sun 08:46:00 AM 18.4297 -69.6689 137° Southeast  Level Estimated
Sun 08:47:00 AM 18.4297 -69.6689 137° Southeast  Level Estimated
Sun 08:48:00 AM 18.4297 -69.6689 137° Southeast  Level Estimated
Sun 08:49:00 AM 18.4297 -69.6689 137° Southeast  Level Estimated
Sun 08:50:00 AM 18.4297 -69.6689 137° Southeast  Level Estimated
Sun 08:51:00 AM 18.4297 -69.6689 137° Southeast  Level Estimated
Sun 08:52:00 AM 18.4297 -69.6689 137° Southeast  Level Estimated
Sun 08:53:00 AM 18.4297 -69.6689 137° Southeast  Level Estimated
Sun 08:54:00 AM 18.4297 -69.6689 137° Southeast  Level Estimated
Sun 08:55:00 AM 18.4297 -69.6689 137° Southeast  Level Estimated
Sun 08:56:00 AM 18.4297 -69.6689 137° Southeast  Level Estimated
Sun 08:57:00 AM 18.4297 -69.6689 137° Southeast  Level Estimated
Sun 08:58:00 AM 18.4297 -69.6689 137° Southeast  Level Estimated
Sun 08:59:00 AM 18.4297 -69.6689 137° Southeast  Level Estimated
Sun 09:00:00 AM 18.4297 -69.6689 137° Southeast  Level Estimated
Sun 09:01:00 AM 18.4297 -69.6689 137° Southeast  Level Estimated
Sun 09:02:00 AM 18.4297 -69.6689 137° Southeast  Level Estimated
Sun 09:03:00 AM 18.4297 -69.6689 137° Southeast  Level Estimated
Sun 09:04:00 AM 18.4297 -69.6689 137° Southeast  Level Estimated

Login

Don't have an account? Register now (free) for customized features, flight alerts, and more!